createdAt,value
2022-11-04T00:01:06.998Z,10.90
2022-11-04T00:03:34.060Z,10.90
2022-11-04T00:06:02.141Z,10.90
2022-11-04T00:08:29.352Z,10.90
2022-11-04T00:11:17.113Z,10.90
2022-11-04T00:13:44.196Z,10.90
2022-11-04T00:16:29.975Z,10.90
2022-11-04T00:18:57.348Z,10.90
2022-11-04T00:21:42.972Z,10.90
2022-11-04T00:24:31.518Z,10.90
2022-11-04T00:27:18.186Z,10.90
2022-11-04T00:29:45.623Z,11.00
2022-11-04T00:32:30.969Z,11.00
2022-11-04T00:34:58.042Z,10.90
2022-11-04T00:37:25.210Z,11.00
2022-11-04T00:39:52.265Z,11.00
2022-11-04T00:42:19.231Z,11.00
2022-11-04T00:44:46.376Z,11.10
2022-11-04T00:47:13.471Z,11.10
2022-11-04T00:49:40.486Z,11.10
2022-11-04T00:52:07.595Z,11.10
2022-11-04T00:54:34.749Z,11.10
2022-11-04T00:57:01.955Z,11.10
2022-11-04T00:59:29.197Z,11.10
2022-11-04T01:01:57.044Z,11.10
2022-11-04T01:04:24.187Z,11.00
2022-11-04T01:06:51.249Z,11.00
2022-11-04T01:09:18.649Z,10.90
2022-11-04T01:11:45.774Z,10.90
2022-11-04T01:14:13.877Z,10.90
2022-11-04T01:16:41.372Z,10.90
2022-11-04T01:19:08.579Z,10.90
2022-11-04T01:21:35.710Z,11.00
2022-11-04T01:24:03.609Z,10.90
2022-11-04T01:26:31.842Z,10.90
2022-11-04T01:29:00.296Z,10.90
2022-11-04T01:31:30.524Z,11.00
2022-11-04T01:33:58.931Z,11.00
2022-11-04T01:36:27.865Z,11.00
2022-11-04T01:38:57.097Z,11.00
2022-11-04T01:41:31.277Z,10.90
2022-11-04T01:44:44.645Z,10.90
2022-11-04T01:47:35.340Z,11.00
2022-11-04T01:50:25.815Z,10.90
2022-11-04T01:53:03.079Z,10.90
2022-11-04T01:55:34.588Z,10.90
2022-11-04T01:58:18.405Z,10.90
2022-11-04T02:00:45.491Z,10.90
2022-11-04T02:03:23.920Z,10.90
2022-11-04T02:05:51.412Z,10.90
2022-11-04T02:08:19.183Z,10.90
2022-11-04T02:10:55.028Z,10.90
2022-11-04T02:13:22.105Z,10.90
2022-11-04T02:16:11.394Z,10.90
2022-11-04T02:18:47.384Z,10.90
2022-11-04T02:21:37.787Z,10.80
2022-11-04T02:25:00.425Z,10.80
2022-11-04T02:27:44.350Z,10.70
2022-11-04T02:30:20.210Z,10.70
2022-11-04T02:32:53.029Z,10.60
2022-11-04T02:35:28.713Z,10.70
2022-11-04T02:38:32.210Z,10.70
2022-11-04T02:41:14.467Z,10.50
2022-11-04T02:43:58.086Z,10.40
2022-11-04T02:47:06.288Z,10.40
2022-11-04T02:49:47.789Z,10.40
2022-11-04T02:52:57.957Z,10.50
2022-11-04T02:55:35.685Z,10.40
2022-11-04T02:58:09.657Z,10.50
2022-11-04T03:00:39.690Z,10.40
2022-11-04T03:03:16.026Z,10.40
2022-11-04T03:05:47.557Z,10.40
2022-11-04T03:08:37.973Z,10.30
2022-11-04T03:11:22.036Z,10.30
2022-11-04T03:14:12.835Z,10.30
2022-11-04T03:16:50.977Z,10.20
2022-11-04T03:19:40.418Z,10.10
2022-11-04T03:22:19.768Z,10.20
2022-11-04T03:24:48.349Z,10.20
2022-11-04T03:27:35.367Z,10.20
2022-11-04T03:30:05.490Z,10.20
2022-11-04T03:33:14.440Z,10.10
2022-11-04T03:35:41.884Z,10.00
2022-11-04T03:38:08.925Z,9.90
2022-11-04T03:40:36.217Z,9.80
2022-11-04T03:43:15.396Z,9.70
2022-11-04T03:45:43.024Z,9.70
2022-11-04T03:48:10.348Z,9.80
2022-11-04T03:50:47.789Z,9.70
2022-11-04T03:53:22.774Z,9.60
2022-11-04T03:56:17.304Z,9.50
2022-11-04T03:59:34.252Z,9.50
2022-11-04T04:02:36.538Z,9.40
2022-11-04T04:05:26.291Z,9.40
2022-11-04T04:08:11.325Z,9.30
2022-11-04T04:11:00.803Z,9.20
2022-11-04T04:14:37.691Z,9.20
2022-11-04T04:17:16.524Z,9.20
2022-11-04T04:19:52.516Z,9.00
2022-11-04T04:22:30.349Z,8.90
2022-11-04T04:25:20.585Z,8.90
2022-11-04T04:27:49.994Z,8.90
2022-11-04T04:30:18.017Z,8.90
2022-11-04T04:32:55.188Z,8.90
2022-11-04T04:35:42.047Z,8.80
2022-11-04T04:38:33.387Z,8.70
2022-11-04T04:41:42.205Z,8.70
2022-11-04T04:44:44.879Z,8.70
2022-11-04T04:47:20.179Z,8.60
2022-11-04T04:49:58.891Z,8.60
2022-11-04T04:52:38.123Z,8.60
2022-11-04T04:55:06.068Z,8.60
2022-11-04T04:57:33.147Z,8.50
2022-11-04T05:00:00.219Z,8.50
2022-11-04T05:02:27.531Z,8.40
2022-11-04T05:04:56.396Z,8.40
2022-11-04T05:07:23.580Z,8.30
2022-11-04T05:09:50.675Z,8.40
2022-11-04T05:12:18.444Z,8.30
2022-11-04T05:14:45.370Z,8.30
2022-11-04T05:17:12.512Z,8.30
2022-11-04T05:19:40.183Z,8.30
2022-11-04T05:22:07.197Z,8.40
2022-11-04T05:24:34.337Z,8.40
2022-11-04T05:27:01.398Z,8.40
2022-11-04T05:29:28.531Z,8.40
2022-11-04T05:31:55.539Z,8.40
2022-11-04T05:34:22.698Z,8.40
2022-11-04T05:36:49.714Z,8.40
2022-11-04T05:39:16.855Z,8.40
2022-11-04T05:41:43.989Z,8.40
2022-11-04T05:44:11.269Z,8.30
2022-11-04T05:46:38.425Z,8.30
2022-11-04T05:49:05.812Z,8.30
2022-11-04T05:51:33.512Z,8.20
2022-11-04T05:54:01.413Z,8.10
2022-11-04T05:56:28.683Z,8.10
2022-11-04T05:58:55.891Z,8.00
2022-11-04T06:01:37.876Z,8.00
2022-11-04T06:04:06.522Z,8.00
2022-11-04T06:06:40.215Z,8.00
2022-11-04T06:09:07.822Z,7.90
2022-11-04T06:11:35.723Z,7.90
2022-11-04T06:14:03.149Z,7.80
2022-11-04T06:16:30.428Z,7.70
2022-11-04T06:19:01.554Z,7.70
2022-11-04T06:21:33.529Z,7.80
2022-11-04T06:24:00.795Z,7.80
2022-11-04T06:26:30.967Z,7.80
2022-11-04T06:28:58.597Z,7.80
2022-11-04T06:31:25.683Z,7.80
2022-11-04T06:33:52.769Z,7.70
2022-11-04T06:36:19.900Z,7.70
2022-11-04T06:38:46.965Z,7.80
2022-11-04T06:41:18.120Z,7.70
2022-11-04T06:43:45.268Z,7.80
2022-11-04T06:46:34.453Z,7.80
2022-11-04T06:49:01.863Z,7.80
2022-11-04T06:51:29.707Z,7.80
2022-11-04T06:53:56.850Z,7.90
2022-11-04T06:56:23.963Z,7.90
2022-11-04T06:58:53.160Z,7.90
2022-11-04T07:01:22.560Z,8.20
2022-11-04T07:03:55.705Z,8.00
2022-11-04T07:06:23.853Z,8.00
2022-11-04T07:08:53.142Z,8.10
2022-11-04T07:11:22.766Z,8.10
2022-11-04T07:13:50.148Z,8.20
2022-11-04T07:16:18.949Z,8.20
2022-11-04T07:18:46.363Z,8.20
2022-11-04T07:21:13.597Z,8.30
2022-11-04T07:23:40.767Z,8.40
2022-11-04T07:26:14.045Z,8.40
2022-11-04T07:28:41.591Z,8.40
2022-11-04T07:31:11.644Z,8.50
2022-11-04T07:33:38.959Z,8.50
2022-11-04T07:36:09.498Z,8.60
2022-11-04T07:38:36.676Z,8.60
2022-11-04T07:41:03.823Z,8.60
2022-11-04T07:43:31.365Z,8.70
2022-11-04T07:46:12.926Z,8.70
2022-11-04T07:48:40.179Z,8.80
2022-11-04T07:51:11.132Z,8.80
2022-11-04T07:53:38.265Z,8.90
2022-11-04T07:56:14.472Z,8.90
2022-11-04T07:58:41.823Z,8.90
2022-11-04T08:01:14.832Z,8.90
2022-11-04T08:03:42.230Z,9.00
2022-11-04T08:06:13.380Z,9.00
2022-11-04T08:08:40.652Z,9.00
2022-11-04T08:11:17.634Z,9.00
2022-11-04T08:13:46.615Z,8.90
2022-11-04T08:16:18.250Z,8.90
2022-11-04T08:18:46.708Z,8.90
2022-11-04T08:21:14.587Z,8.90
2022-11-04T08:23:41.664Z,8.90
2022-11-04T08:26:15.732Z,8.90
2022-11-04T08:28:42.794Z,8.90
2022-11-04T08:31:15.008Z,9.00
2022-11-04T08:33:42.654Z,9.00
2022-11-04T08:36:20.890Z,9.10
2022-11-04T08:38:48.698Z,9.10
2022-11-04T08:41:20.516Z,9.20
2022-11-04T08:43:48.498Z,9.20
2022-11-04T08:46:17.502Z,9.30
2022-11-04T08:48:45.061Z,9.20
2022-11-04T08:51:23.257Z,9.20
2022-11-04T08:53:50.686Z,9.20
2022-11-04T08:56:24.808Z,9.30
2022-11-04T08:58:52.284Z,9.30
2022-11-04T09:01:21.341Z,9.30
2022-11-04T09:03:49.639Z,9.30
2022-11-04T09:06:21.812Z,9.40
2022-11-04T09:08:49.225Z,9.50
2022-11-04T09:11:17.515Z,9.60
2022-11-04T09:13:44.878Z,9.70
2022-11-04T09:16:13.753Z,9.70
2022-11-04T09:18:41.671Z,9.70
2022-11-04T09:21:10.818Z,9.90
2022-11-04T09:23:39.254Z,9.90
2022-11-04T09:26:14.040Z,10.00
2022-11-04T09:28:42.056Z,10.10
2022-11-04T09:31:18.117Z,10.30
2022-11-04T09:33:45.609Z,10.40
2022-11-04T09:36:14.353Z,10.40
2022-11-04T09:38:43.168Z,10.40
2022-11-04T09:41:27.676Z,10.50
2022-11-04T09:44:17.219Z,10.50
2022-11-04T09:46:46.184Z,10.50
2022-11-04T09:49:13.727Z,10.60
2022-11-04T09:51:57.966Z,10.70
2022-11-04T09:54:34.776Z,10.70
2022-11-04T09:57:03.024Z,10.70
2022-11-04T09:59:34.347Z,10.70
2022-11-04T10:02:01.507Z,10.90
2022-11-04T10:04:58.811Z,10.80
2022-11-04T10:07:41.603Z,10.80
2022-11-04T10:10:46.132Z,10.80
2022-11-04T10:13:24.407Z,10.90
2022-11-04T10:16:32.260Z,11.00
2022-11-04T10:19:29.483Z,11.00
2022-11-04T10:22:03.738Z,11.00
2022-11-04T10:24:51.813Z,11.10
2022-11-04T10:27:30.622Z,11.10
2022-11-04T10:30:21.155Z,11.10
2022-11-04T10:33:06.315Z,11.20
2022-11-04T10:35:57.353Z,11.20
2022-11-04T10:38:34.946Z,11.20
2022-11-04T10:41:07.134Z,11.40
2022-11-04T10:43:39.188Z,11.80
2022-11-04T10:46:35.645Z,11.60
2022-11-04T10:49:38.630Z,11.50
2022-11-04T10:52:09.810Z,11.80
2022-11-04T10:54:45.336Z,11.80
2022-11-04T10:57:20.319Z,11.70
2022-11-04T11:00:05.396Z,11.70
2022-11-04T11:02:38.468Z,11.70
2022-11-04T11:05:20.231Z,11.70
2022-11-04T11:07:54.024Z,11.70
2022-11-04T11:10:33.200Z,11.70
2022-11-04T11:13:08.340Z,11.80
2022-11-04T11:15:38.812Z,11.80
2022-11-04T11:18:21.818Z,11.70
2022-11-04T11:21:04.144Z,11.80
2022-11-04T11:23:48.537Z,11.80
2022-11-04T11:26:41.968Z,11.60
2022-11-04T11:29:12.083Z,11.70
2022-11-04T11:31:40.868Z,11.70
2022-11-04T11:34:20.589Z,11.80
2022-11-04T11:36:48.303Z,11.70
2022-11-04T11:39:22.200Z,11.50
2022-11-04T11:42:12.204Z,11.50
2022-11-04T11:45:00.218Z,11.50
2022-11-04T11:47:30.196Z,11.70
2022-11-04T11:50:30.666Z,11.80
2022-11-04T11:53:19.778Z,11.80
2022-11-04T11:56:26.418Z,11.80
2022-11-04T12:02:29.260Z,11.90
2022-11-04T12:11:16.097Z,12.40
2022-11-04T12:13:53.889Z,12.60
2022-11-04T12:16:44.611Z,12.90
2022-11-04T12:19:31.318Z,12.90
2022-11-04T12:22:23.571Z,12.90
2022-11-04T12:25:23.317Z,12.90
2022-11-04T12:28:07.085Z,13.10
2022-11-04T12:30:52.452Z,13.20
2022-11-04T12:33:34.632Z,13.30
2022-11-04T12:36:29.749Z,13.40
2022-11-04T12:39:36.151Z,13.50
2022-11-04T12:42:51.711Z,13.60
2022-11-04T12:46:13.164Z,13.50
2022-11-04T12:49:07.322Z,13.40
2022-11-04T12:51:49.195Z,13.20
2022-11-04T12:54:29.735Z,13.20
2022-11-04T12:57:23.711Z,13.10
2022-11-04T13:00:11.626Z,13.00
2022-11-04T13:02:44.163Z,13.30
2022-11-04T13:05:43.923Z,13.00
2022-11-04T13:08:44.543Z,12.80
2022-11-04T13:11:30.053Z,12.90
2022-11-04T13:14:16.371Z,12.90
2022-11-04T13:16:46.038Z,13.00
2022-11-04T13:19:32.493Z,13.00
2022-11-04T13:22:06.945Z,13.10
2022-11-04T13:24:39.310Z,13.00
2022-11-04T13:27:38.696Z,13.00
2022-11-04T13:30:23.007Z,13.00
2022-11-04T13:33:21.098Z,12.70
2022-11-04T13:36:33.157Z,12.50
2022-11-04T13:39:12.576Z,12.40
2022-11-04T13:41:57.424Z,12.50
2022-11-04T13:44:28.919Z,12.70
2022-11-04T13:47:01.649Z,12.70
2022-11-04T13:49:37.623Z,12.60
2022-11-04T13:52:11.719Z,12.30
2022-11-04T13:55:08.592Z,12.10
2022-11-04T13:57:57.302Z,12.00
2022-11-04T14:00:31.960Z,12.00
2022-11-04T14:03:18.315Z,11.90
2022-11-04T14:06:03.096Z,11.60
2022-11-04T14:08:31.572Z,11.50
2022-11-04T14:11:04.138Z,11.50
2022-11-04T14:13:35.179Z,11.50
2022-11-04T14:16:23.843Z,11.40
2022-11-04T14:18:53.685Z,11.40
2022-11-04T14:21:27.487Z,11.40
2022-11-04T14:23:57.863Z,11.30
2022-11-04T14:26:30.925Z,11.40
2022-11-04T14:29:06.662Z,11.50
2022-11-04T14:31:40.078Z,11.40
2022-11-04T14:34:08.380Z,11.30
2022-11-04T14:36:42.298Z,11.30
2022-11-04T14:39:12.006Z,11.30
2022-11-04T14:41:41.712Z,11.30
2022-11-04T14:44:23.538Z,11.30
2022-11-04T14:47:20.578Z,11.40
2022-11-04T14:49:58.158Z,11.40
2022-11-04T14:52:35.012Z,11.50
2022-11-04T14:55:11.209Z,11.40
2022-11-04T14:57:47.561Z,11.40
2022-11-04T15:00:31.581Z,11.30
2022-11-04T15:03:24.890Z,11.30
2022-11-04T15:06:03.332Z,11.50
2022-11-04T15:08:42.293Z,11.30
2022-11-04T15:11:18.026Z,11.20
2022-11-04T15:13:51.297Z,11.10
2022-11-04T15:16:28.629Z,11.00
2022-11-04T15:18:59.379Z,11.00
2022-11-04T15:21:27.261Z,11.00
2022-11-04T15:23:56.092Z,11.00
2022-11-04T15:26:30.680Z,10.80
2022-11-04T15:29:08.452Z,10.60
2022-11-04T15:31:37.861Z,10.50
2022-11-04T15:34:13.212Z,10.60
2022-11-04T15:36:43.993Z,10.50
2022-11-04T15:39:26.271Z,10.60
2022-11-04T15:42:17.951Z,10.50
2022-11-04T15:44:51.469Z,10.50
2022-11-04T15:47:18.419Z,10.30
2022-11-04T15:49:47.566Z,10.30
2022-11-04T15:52:25.919Z,10.40
2022-11-04T15:54:58.952Z,10.30
2022-11-04T15:57:35.431Z,10.20
2022-11-04T16:00:09.066Z,10.10
2022-11-04T16:02:45.321Z,10.00
2022-11-04T16:05:12.326Z,9.90
2022-11-04T16:07:42.291Z,9.80
2022-11-04T16:10:32.546Z,9.80
2022-11-04T16:13:20.004Z,9.70
2022-11-04T16:15:51.514Z,9.70
2022-11-04T16:18:32.000Z,9.60
2022-11-04T16:21:04.246Z,9.70
2022-11-04T16:23:31.953Z,9.70
2022-11-04T16:26:04.347Z,9.70
2022-11-04T16:28:36.715Z,9.70
2022-11-04T16:31:24.972Z,9.60
2022-11-04T16:33:52.277Z,9.60
2022-11-04T16:36:25.128Z,9.70
2022-11-04T16:39:02.929Z,9.70
2022-11-04T16:41:35.587Z,9.70
2022-11-04T16:44:04.434Z,9.70
2022-11-04T16:46:34.226Z,9.70
2022-11-04T16:49:02.284Z,9.70
2022-11-04T16:51:33.228Z,9.70
2022-11-04T16:54:00.429Z,9.70
2022-11-04T16:56:28.011Z,9.70
2022-11-04T16:58:55.177Z,9.70
2022-11-04T17:01:22.338Z,9.70
2022-11-04T17:03:49.992Z,9.70
2022-11-04T17:06:20.233Z,9.70
2022-11-04T17:08:47.584Z,9.70
2022-11-04T17:11:14.831Z,9.70
2022-11-04T17:13:41.855Z,9.70
2022-11-04T17:16:15.231Z,9.70
2022-11-04T17:18:42.399Z,9.70
2022-11-04T17:21:14.588Z,9.70
2022-11-04T17:23:41.757Z,9.70
2022-11-04T17:26:09.903Z,9.70
2022-11-04T17:28:36.970Z,9.60
2022-11-04T17:31:04.382Z,9.60
2022-11-04T17:33:31.448Z,9.60
2022-11-04T17:36:01.065Z,9.60
2022-11-04T17:38:31.891Z,9.60
2022-11-04T17:41:17.135Z,9.60
2022-11-04T17:44:02.343Z,9.60
2022-11-04T17:46:34.389Z,9.70
2022-11-04T17:49:18.154Z,9.60
2022-11-04T17:51:53.699Z,9.60
2022-11-04T17:54:22.499Z,9.70
2022-11-04T17:56:50.043Z,9.70
2022-11-04T17:59:18.233Z,9.60
2022-11-04T18:01:46.284Z,9.60
2022-11-04T18:04:22.439Z,9.60
2022-11-04T18:06:51.252Z,9.60
2022-11-04T18:09:19.179Z,9.60
2022-11-04T18:12:05.584Z,9.60
2022-11-04T18:14:33.253Z,9.70
2022-11-04T18:17:00.538Z,9.50
2022-11-04T18:19:28.455Z,9.50
2022-11-04T18:21:55.719Z,9.50
2022-11-04T18:24:24.121Z,9.50
2022-11-04T18:26:52.255Z,9.40
2022-11-04T18:29:19.843Z,9.30
2022-11-04T18:31:49.317Z,9.30
2022-11-04T18:34:19.512Z,9.30
2022-11-04T18:36:48.658Z,9.30
2022-11-04T18:39:18.344Z,9.30
2022-11-04T18:41:46.270Z,9.30
2022-11-04T18:44:20.330Z,9.30
2022-11-04T18:46:48.858Z,9.30
2022-11-04T18:49:17.162Z,9.30
2022-11-04T18:51:44.666Z,9.40
2022-11-04T18:54:12.612Z,9.40
2022-11-04T18:56:39.979Z,9.30
2022-11-04T18:59:10.578Z,9.30
2022-11-04T19:01:38.245Z,9.30
2022-11-04T19:04:05.907Z,9.30
2022-11-04T19:06:36.969Z,9.40
2022-11-04T19:09:40.215Z,9.40
2022-11-04T19:12:16.219Z,9.40
2022-11-04T19:14:43.533Z,9.40
2022-11-04T19:17:10.652Z,9.40
2022-11-04T19:19:37.752Z,9.50
2022-11-04T19:22:04.919Z,9.50
2022-11-04T19:24:32.086Z,9.50
2022-11-04T19:26:59.836Z,9.50
2022-11-04T19:29:27.201Z,9.50
2022-11-04T19:31:54.239Z,9.40
2022-11-04T19:34:21.900Z,9.40
2022-11-04T19:36:49.055Z,9.30
2022-11-04T19:39:16.206Z,9.30
2022-11-04T19:42:01.998Z,9.30
2022-11-04T19:44:29.162Z,9.20
2022-11-04T19:46:56.235Z,9.10
2022-11-04T19:49:23.558Z,9.20
2022-11-04T19:51:52.904Z,9.20
2022-11-04T19:54:20.643Z,9.20
2022-11-04T19:56:47.627Z,9.20
2022-11-04T19:59:15.662Z,9.10
2022-11-04T20:01:43.127Z,9.10
2022-11-04T20:04:10.553Z,9.10
2022-11-04T20:06:37.772Z,9.10
2022-11-04T20:09:08.549Z,9.10
2022-11-04T20:11:57.567Z,9.10
2022-11-04T20:14:25.840Z,9.10
2022-11-04T20:16:53.235Z,9.10
2022-11-04T20:19:22.871Z,9.20
2022-11-04T20:21:51.038Z,9.20
2022-11-04T20:24:18.515Z,9.10
2022-11-04T20:26:47.060Z,9.10
2022-11-04T20:29:16.135Z,9.20
2022-11-04T20:31:44.787Z,9.20
2022-11-04T20:34:13.318Z,9.20
2022-11-04T20:36:40.450Z,9.20
2022-11-04T20:39:17.293Z,9.20
2022-11-04T20:41:45.213Z,9.30
2022-11-04T20:44:16.329Z,9.30
2022-11-04T20:46:44.761Z,9.30
2022-11-04T20:49:13.028Z,9.30
2022-11-04T20:51:48.664Z,9.30
2022-11-04T20:54:18.043Z,9.30
2022-11-04T20:56:45.644Z,9.30
2022-11-04T20:59:14.113Z,9.30
2022-11-04T21:01:44.578Z,9.30
2022-11-04T21:04:20.680Z,9.30
2022-11-04T21:06:50.374Z,9.30
2022-11-04T21:09:20.823Z,9.30
2022-11-04T21:11:49.042Z,9.30
2022-11-04T21:14:19.625Z,9.30
2022-11-04T21:16:48.042Z,9.30
2022-11-04T21:19:16.257Z,9.30
2022-11-04T21:21:44.609Z,9.30
2022-11-04T21:24:13.757Z,9.30
2022-11-04T21:26:41.878Z,9.30
2022-11-04T21:29:13.682Z,9.20
2022-11-04T21:31:41.763Z,9.30
2022-11-04T21:34:09.373Z,9.30
2022-11-04T21:36:37.035Z,9.30
2022-11-04T21:39:04.965Z,9.30
2022-11-04T21:41:39.252Z,9.30
2022-11-04T21:44:08.830Z,9.30
2022-11-04T21:46:36.785Z,9.30
2022-11-04T21:49:04.340Z,9.30
2022-11-04T21:51:33.344Z,9.30
2022-11-04T21:54:00.744Z,9.30
2022-11-04T21:56:33.280Z,9.30
2022-11-04T21:59:00.693Z,9.30
2022-11-04T22:01:30.932Z,9.20
2022-11-04T22:04:00.990Z,9.30
2022-11-04T22:06:35.676Z,9.30
2022-11-04T22:09:05.987Z,9.30
2022-11-04T22:11:36.679Z,9.30
2022-11-04T22:14:07.512Z,9.30
2022-11-04T22:16:38.698Z,9.30
2022-11-04T22:19:10.484Z,9.20
2022-11-04T22:21:41.555Z,9.20
2022-11-04T22:24:15.156Z,9.30
2022-11-04T22:26:43.128Z,9.20
2022-11-04T22:29:11.128Z,9.30
2022-11-04T22:31:41.609Z,9.30
2022-11-04T22:34:09.911Z,9.30
2022-11-04T22:36:37.999Z,9.30
2022-11-04T22:39:05.767Z,9.40
2022-11-04T22:41:34.572Z,9.40
2022-11-04T22:44:03.354Z,9.40
2022-11-04T22:46:33.774Z,9.40
2022-11-04T22:49:01.125Z,9.40
2022-11-04T22:51:29.883Z,9.30
2022-11-04T22:54:01.582Z,9.30
2022-11-04T22:56:31.866Z,9.30
2022-11-04T22:59:00.505Z,9.30
2022-11-04T23:01:27.812Z,9.30
2022-11-04T23:03:54.984Z,9.30
2022-11-04T23:06:22.180Z,9.40
2022-11-04T23:08:49.497Z,9.40
2022-11-04T23:11:39.989Z,9.40
2022-11-04T23:14:26.097Z,9.30
2022-11-04T23:17:11.683Z,9.40
2022-11-04T23:19:39.396Z,9.30
2022-11-04T23:22:26.377Z,9.30
2022-11-04T23:25:07.035Z,9.30
2022-11-04T23:28:05.049Z,9.30
2022-11-04T23:30:38.624Z,9.20
2022-11-04T23:33:08.792Z,9.20
2022-11-04T23:36:06.378Z,9.20
2022-11-04T23:38:35.541Z,9.30
2022-11-04T23:41:25.357Z,9.30
2022-11-04T23:43:53.330Z,9.30
2022-11-04T23:46:43.155Z,9.30
2022-11-04T23:49:14.664Z,9.30
2022-11-04T23:52:00.461Z,9.30
2022-11-04T23:54:46.050Z,9.30
2022-11-04T23:57:34.381Z,9.30
